createdAt,value
2022-12-16T00:00:05.400Z,1.50
2022-12-16T00:02:32.233Z,1.60
2022-12-16T00:04:59.047Z,1.60
2022-12-16T00:07:25.713Z,1.50
2022-12-16T00:09:52.448Z,1.50
2022-12-16T00:12:19.152Z,1.50
2022-12-16T00:14:45.806Z,1.60
2022-12-16T00:17:12.457Z,1.60
2022-12-16T00:19:39.114Z,1.50
2022-12-16T00:22:06.011Z,1.50
2022-12-16T00:24:32.766Z,1.50
2022-12-16T00:26:59.411Z,1.50
2022-12-16T00:29:28.561Z,1.50
2022-12-16T00:31:55.236Z,1.40
2022-12-16T00:34:21.988Z,1.50
2022-12-16T00:36:48.643Z,1.40
2022-12-16T00:39:15.313Z,1.40
2022-12-16T00:41:41.951Z,1.40
2022-12-16T00:44:09.189Z,1.40
2022-12-16T00:46:35.932Z,1.40
2022-12-16T00:49:02.686Z,1.30
2022-12-16T00:51:29.348Z,1.30
2022-12-16T00:53:56.011Z,1.30
2022-12-16T00:56:22.777Z,1.30
2022-12-16T00:58:49.439Z,1.40
2022-12-16T01:01:17.545Z,1.40
2022-12-16T01:03:44.341Z,1.40
2022-12-16T01:06:14.529Z,1.30
2022-12-16T01:08:48.128Z,1.30
2022-12-16T01:11:19.175Z,1.30
2022-12-16T01:13:46.307Z,1.30
2022-12-16T01:16:13.062Z,1.30
2022-12-16T01:18:39.750Z,1.30
2022-12-16T01:21:07.404Z,1.30
2022-12-16T01:23:35.876Z,1.30
2022-12-16T01:26:02.874Z,1.20
2022-12-16T01:28:30.130Z,1.30
2022-12-16T01:30:58.077Z,1.30
2022-12-16T01:33:24.769Z,1.20
2022-12-16T01:35:56.619Z,1.20
2022-12-16T01:38:23.524Z,1.30
2022-12-16T01:40:50.496Z,1.30
2022-12-16T01:43:18.133Z,1.30
2022-12-16T01:45:44.836Z,1.30
2022-12-16T01:48:17.591Z,1.30
2022-12-16T01:50:44.300Z,1.30
2022-12-16T01:53:11.131Z,1.30
2022-12-16T01:55:39.653Z,1.30
2022-12-16T01:58:12.382Z,1.30
2022-12-16T02:00:40.354Z,1.30
2022-12-16T02:03:08.052Z,1.30
2022-12-16T02:05:38.374Z,1.30
2022-12-16T02:08:15.648Z,1.30
2022-12-16T02:10:42.289Z,1.30
2022-12-16T02:13:27.212Z,1.30
2022-12-16T02:16:02.951Z,1.30
2022-12-16T02:18:49.867Z,1.30
2022-12-16T02:21:32.079Z,1.30
2022-12-16T02:24:14.114Z,1.30
2022-12-16T02:26:53.066Z,1.20
2022-12-16T02:29:22.690Z,1.20
2022-12-16T02:31:53.843Z,1.20
2022-12-16T02:34:44.888Z,1.30
2022-12-16T02:37:20.818Z,1.30
2022-12-16T02:39:58.392Z,1.30
2022-12-16T02:42:28.051Z,1.30
2022-12-16T02:45:02.904Z,1.20
2022-12-16T02:47:30.160Z,1.20
2022-12-16T02:49:57.269Z,1.30
2022-12-16T02:52:32.152Z,1.30
2022-12-16T02:55:01.501Z,1.30
2022-12-16T02:57:28.108Z,1.30
2022-12-16T03:00:04.104Z,1.30
2022-12-16T03:02:48.467Z,1.30
2022-12-16T03:05:24.057Z,1.30
2022-12-16T03:07:51.670Z,1.30
2022-12-16T03:10:20.547Z,1.40
2022-12-16T03:12:47.269Z,1.40
2022-12-16T03:15:16.752Z,1.40
2022-12-16T03:17:45.490Z,1.40
2022-12-16T03:20:14.150Z,1.40
2022-12-16T03:22:42.321Z,1.40
2022-12-16T03:25:09.368Z,1.50
2022-12-16T03:27:41.830Z,1.40
2022-12-16T03:30:19.932Z,1.50
2022-12-16T03:32:50.004Z,1.40
2022-12-16T03:35:16.627Z,1.50
2022-12-16T03:37:44.321Z,1.40
2022-12-16T03:40:12.169Z,1.40
2022-12-16T03:42:39.318Z,1.40
2022-12-16T03:45:08.403Z,1.30
2022-12-16T03:47:35.043Z,1.40
2022-12-16T03:50:01.699Z,1.40
2022-12-16T03:52:28.411Z,1.40
2022-12-16T03:54:55.320Z,1.40
2022-12-16T03:57:21.954Z,1.40
2022-12-16T03:59:48.597Z,1.40
2022-12-16T04:02:15.473Z,1.40
2022-12-16T04:04:42.292Z,1.40
2022-12-16T04:07:21.018Z,1.40
2022-12-16T04:09:48.499Z,1.40
2022-12-16T04:12:33.829Z,1.40
2022-12-16T04:15:18.857Z,1.40
2022-12-16T04:18:03.949Z,1.40
2022-12-16T04:20:55.351Z,1.40
2022-12-16T04:23:41.502Z,1.40
2022-12-16T04:26:08.195Z,1.40
2022-12-16T04:28:34.829Z,1.40
2022-12-16T04:31:01.606Z,1.40
2022-12-16T04:33:47.065Z,1.40
2022-12-16T04:36:32.211Z,1.40
2022-12-16T04:39:17.394Z,1.30
2022-12-16T04:42:05.583Z,1.30
2022-12-16T04:44:50.706Z,1.30
2022-12-16T04:47:36.185Z,1.30
2022-12-16T04:50:21.359Z,1.30
2022-12-16T04:53:09.155Z,1.30
2022-12-16T04:55:57.901Z,1.20
2022-12-16T04:58:46.089Z,1.20
2022-12-16T05:01:31.258Z,1.30
2022-12-16T05:04:16.726Z,1.30
2022-12-16T05:07:01.941Z,1.20
2022-12-16T05:09:47.076Z,1.20
2022-12-16T05:12:32.195Z,1.30
2022-12-16T05:15:17.344Z,1.20
2022-12-16T05:18:05.914Z,1.20
2022-12-16T05:20:57.109Z,1.20
2022-12-16T05:23:42.469Z,1.20
2022-12-16T05:26:27.645Z,1.20
2022-12-16T05:29:12.806Z,1.20
2022-12-16T05:31:58.043Z,1.20
2022-12-16T05:34:43.092Z,1.20
2022-12-16T05:37:28.289Z,1.20
2022-12-16T05:40:13.484Z,1.20
2022-12-16T05:42:58.719Z,1.30
2022-12-16T05:45:43.860Z,1.30
2022-12-16T05:48:29.003Z,1.30
2022-12-16T05:51:14.430Z,1.30
2022-12-16T05:53:59.511Z,1.30
2022-12-16T05:56:44.808Z,1.30
2022-12-16T05:59:29.872Z,1.30
2022-12-16T06:02:15.233Z,1.30
2022-12-16T06:05:00.745Z,1.30
2022-12-16T06:07:46.069Z,1.30
2022-12-16T06:10:31.159Z,1.40
2022-12-16T06:13:16.370Z,1.40
2022-12-16T06:16:06.630Z,1.40
2022-12-16T06:19:01.188Z,1.40
2022-12-16T06:21:46.247Z,1.40
2022-12-16T06:24:31.476Z,1.40
2022-12-16T06:27:16.538Z,1.40
2022-12-16T06:30:01.737Z,1.30
2022-12-16T06:32:46.931Z,1.30
2022-12-16T06:35:32.209Z,1.30
2022-12-16T06:38:17.341Z,1.30
2022-12-16T06:41:02.432Z,1.30
2022-12-16T06:43:47.494Z,1.30
2022-12-16T06:46:32.650Z,1.20
2022-12-16T06:49:18.117Z,1.30
2022-12-16T06:52:03.185Z,1.30
2022-12-16T06:54:48.510Z,1.30
2022-12-16T06:57:33.782Z,1.30
2022-12-16T07:00:18.860Z,1.30
2022-12-16T07:03:04.739Z,1.40
2022-12-16T07:05:49.831Z,1.40
2022-12-16T07:08:35.002Z,1.40
2022-12-16T07:11:20.162Z,1.40
2022-12-16T07:14:05.397Z,1.40
2022-12-16T07:16:50.487Z,1.50
2022-12-16T07:19:35.920Z,1.50
2022-12-16T07:22:20.992Z,1.50
2022-12-16T07:25:06.197Z,1.50
2022-12-16T07:27:51.275Z,1.50
2022-12-16T07:30:36.326Z,1.50
2022-12-16T07:33:21.413Z,1.50
2022-12-16T07:36:20.199Z,1.50
2022-12-16T07:39:05.298Z,1.50
2022-12-16T07:41:50.384Z,1.50
2022-12-16T07:44:35.401Z,1.50
2022-12-16T07:47:20.621Z,1.50
2022-12-16T07:50:05.693Z,1.50
2022-12-16T07:52:50.992Z,1.50
2022-12-16T07:55:36.012Z,1.50
2022-12-16T07:58:21.221Z,1.50
2022-12-16T08:01:09.363Z,1.50
2022-12-16T08:03:55.123Z,1.50
2022-12-16T08:06:41.389Z,1.50
2022-12-16T08:09:27.032Z,1.50
2022-12-16T08:12:12.166Z,1.50
2022-12-16T08:14:57.565Z,1.60
2022-12-16T08:17:42.956Z,1.60
2022-12-16T08:20:28.678Z,1.70
2022-12-16T08:23:21.276Z,1.70
2022-12-16T08:26:06.353Z,1.80
2022-12-16T08:28:51.913Z,1.80
2022-12-16T08:31:38.045Z,1.90
2022-12-16T08:34:23.358Z,1.90
2022-12-16T08:37:08.557Z,2.00
2022-12-16T08:40:11.013Z,2.10
2022-12-16T08:42:58.952Z,2.10
2022-12-16T08:45:44.683Z,2.00
2022-12-16T08:48:30.062Z,2.10
2022-12-16T08:51:15.187Z,2.10
2022-12-16T08:54:00.287Z,2.00
2022-12-16T08:56:45.422Z,1.90
2022-12-16T08:59:30.598Z,1.90
2022-12-16T09:02:15.872Z,2.00
2022-12-16T09:05:01.343Z,2.00
2022-12-16T09:07:46.474Z,2.00
2022-12-16T09:10:37.589Z,2.00
2022-12-16T09:13:29.315Z,2.00
2022-12-16T09:16:19.227Z,2.00
2022-12-16T09:19:05.441Z,2.00
2022-12-16T09:21:50.559Z,2.00
2022-12-16T09:24:35.716Z,2.00
2022-12-16T09:27:20.982Z,2.00
2022-12-16T09:30:16.606Z,2.00
2022-12-16T09:33:04.748Z,2.00
2022-12-16T09:35:50.383Z,2.10
2022-12-16T09:38:36.474Z,2.20
2022-12-16T09:41:44.710Z,2.20
2022-12-16T09:44:36.751Z,2.30
2022-12-16T09:47:29.458Z,2.20
2022-12-16T09:50:14.690Z,2.30
2022-12-16T09:53:04.862Z,2.40
2022-12-16T09:55:52.007Z,2.50
2022-12-16T09:58:38.763Z,2.50
2022-12-16T10:01:25.062Z,2.60
2022-12-16T10:04:10.663Z,2.60
2022-12-16T10:07:03.513Z,2.60
2022-12-16T10:09:52.730Z,2.60
2022-12-16T10:12:48.658Z,2.60
2022-12-16T10:15:40.088Z,2.70
2022-12-16T10:18:31.850Z,2.70
2022-12-16T10:21:17.275Z,2.70
2022-12-16T10:24:09.507Z,2.80
2022-12-16T10:26:54.536Z,2.90
2022-12-16T10:29:43.685Z,2.80
2022-12-16T10:32:33.334Z,2.90
2022-12-16T10:35:18.941Z,2.80
2022-12-16T10:38:04.996Z,2.80
2022-12-16T10:40:52.533Z,2.80
2022-12-16T10:43:39.579Z,2.90
2022-12-16T10:46:26.367Z,2.80
2022-12-16T10:49:11.995Z,2.80
2022-12-16T10:51:57.293Z,2.80
2022-12-16T10:54:46.361Z,2.70
2022-12-16T10:57:31.720Z,2.60
2022-12-16T11:00:28.986Z,2.70
2022-12-16T11:03:17.511Z,2.70
2022-12-16T11:06:02.786Z,2.70
2022-12-16T11:08:49.444Z,2.70
2022-12-16T11:11:47.718Z,2.80
2022-12-16T11:14:37.410Z,2.80
2022-12-16T11:17:41.582Z,2.90
2022-12-16T11:20:31.877Z,2.90
2022-12-16T11:23:27.686Z,2.90
2022-12-16T11:26:22.571Z,2.90
2022-12-16T11:29:29.378Z,2.80
2022-12-16T11:32:33.537Z,2.90
2022-12-16T11:35:19.387Z,2.80
2022-12-16T11:38:08.175Z,2.80
2022-12-16T11:40:55.375Z,2.80
2022-12-16T11:43:42.753Z,2.80
2022-12-16T11:46:30.622Z,2.80
2022-12-16T11:49:24.960Z,2.80
2022-12-16T11:52:36.416Z,2.70
2022-12-16T11:55:48.048Z,2.70
2022-12-16T11:58:47.870Z,2.60
2022-12-16T12:01:40.191Z,2.50
2022-12-16T12:04:36.362Z,2.40
2022-12-16T12:07:30.900Z,2.40
2022-12-16T12:10:45.422Z,2.40
2022-12-16T12:13:46.677Z,2.50
2022-12-16T12:16:40.633Z,2.50
2022-12-16T12:19:43.879Z,2.60
2022-12-16T12:22:50.582Z,2.60
2022-12-16T12:25:40.590Z,2.70
2022-12-16T12:28:25.857Z,2.60
2022-12-16T12:31:17.105Z,2.60
2022-12-16T12:34:02.225Z,2.60
2022-12-16T12:36:57.079Z,2.60
2022-12-16T12:39:55.316Z,2.60
2022-12-16T12:42:48.900Z,2.60
2022-12-16T12:45:37.946Z,2.60
2022-12-16T12:48:23.204Z,2.50
2022-12-16T12:51:15.329Z,2.40
2022-12-16T12:54:00.425Z,2.40
2022-12-16T12:56:57.683Z,2.30
2022-12-16T13:00:02.628Z,2.30
2022-12-16T13:02:49.318Z,2.20
2022-12-16T13:05:34.951Z,2.20
2022-12-16T13:08:39.042Z,2.30
2022-12-16T13:11:35.359Z,2.20
2022-12-16T13:14:20.758Z,2.10
2022-12-16T13:17:18.903Z,2.20
2022-12-16T13:20:12.239Z,2.00
2022-12-16T13:22:57.497Z,2.00
2022-12-16T13:25:54.938Z,2.00
2022-12-16T13:28:42.053Z,1.90
2022-12-16T13:31:27.948Z,1.90
2022-12-16T13:34:13.885Z,1.90
2022-12-16T13:36:59.504Z,2.00
2022-12-16T13:39:45.960Z,1.90
2022-12-16T13:42:50.228Z,1.90
2022-12-16T13:45:54.137Z,1.80
2022-12-16T13:52:20.408Z,1.70
2022-12-16T13:55:11.629Z,1.60
2022-12-16T13:57:59.258Z,1.70
2022-12-16T14:00:45.496Z,1.60
2022-12-16T14:03:38.603Z,1.60
2022-12-16T14:06:27.554Z,1.60
2022-12-16T14:09:12.764Z,1.60
2022-12-16T14:12:16.636Z,1.50
2022-12-16T14:15:06.450Z,1.50
2022-12-16T14:17:55.601Z,1.50
2022-12-16T14:20:51.852Z,1.50
2022-12-16T14:23:58.726Z,1.40
2022-12-16T14:26:45.609Z,1.50
2022-12-16T14:29:38.999Z,1.40
2022-12-16T14:32:42.531Z,1.40
2022-12-16T14:35:44.719Z,1.40
2022-12-16T14:38:45.441Z,1.30
2022-12-16T14:41:36.520Z,1.30
2022-12-16T14:44:23.158Z,1.30
2022-12-16T14:47:14.724Z,1.30
2022-12-16T14:50:09.163Z,1.30
2022-12-16T14:52:54.769Z,1.30
2022-12-16T14:55:50.510Z,1.20
2022-12-16T14:58:41.793Z,1.20
2022-12-16T15:01:41.175Z,1.20
2022-12-16T15:04:46.901Z,1.10
2022-12-16T15:07:32.786Z,1.10
2022-12-16T15:10:18.520Z,1.10
2022-12-16T15:13:05.236Z,1.10
2022-12-16T15:15:50.461Z,1.10
2022-12-16T15:18:41.955Z,1.00
2022-12-16T15:21:27.403Z,1.10
2022-12-16T15:24:12.919Z,1.00
2022-12-16T15:26:58.292Z,1.00
2022-12-16T15:30:00.386Z,1.00
2022-12-16T15:32:45.663Z,1.00
2022-12-16T15:35:50.575Z,0.90
2022-12-16T15:38:49.437Z,0.90
2022-12-16T15:41:53.945Z,0.90
2022-12-16T15:44:46.639Z,0.90
2022-12-16T15:47:38.986Z,0.90
2022-12-16T15:50:25.181Z,0.90
2022-12-16T15:53:11.276Z,0.90
2022-12-16T15:56:04.154Z,0.90
2022-12-16T15:58:51.869Z,0.90
2022-12-16T16:01:38.705Z,0.90
2022-12-16T16:04:36.167Z,0.90
2022-12-16T16:07:21.345Z,0.80
2022-12-16T16:10:06.520Z,0.80
2022-12-16T16:12:53.913Z,0.80
2022-12-16T16:15:45.397Z,0.80
2022-12-16T16:18:30.903Z,0.80
2022-12-16T16:21:16.242Z,0.80
2022-12-16T16:24:01.647Z,0.80
2022-12-16T16:26:47.310Z,0.80
2022-12-16T16:29:33.666Z,0.90
2022-12-16T16:32:20.305Z,0.90
2022-12-16T16:35:05.727Z,0.80
2022-12-16T16:37:50.769Z,0.90
2022-12-16T16:40:45.182Z,0.80
2022-12-16T16:43:30.543Z,0.80
2022-12-16T16:46:16.630Z,0.80
2022-12-16T16:49:01.909Z,0.80
2022-12-16T16:51:47.290Z,0.80
2022-12-16T16:54:32.858Z,0.80
2022-12-16T16:57:21.010Z,0.80
2022-12-16T17:00:06.051Z,0.80
2022-12-16T17:02:51.416Z,0.70
2022-12-16T17:05:36.955Z,0.60
2022-12-16T17:08:34.356Z,0.60
2022-12-16T17:11:20.173Z,0.60
2022-12-16T17:14:05.511Z,0.40
2022-12-16T17:16:50.695Z,0.50
2022-12-16T17:19:35.816Z,0.60
2022-12-16T17:22:21.362Z,0.50
2022-12-16T17:25:06.621Z,0.50
2022-12-16T17:28:02.103Z,0.50
2022-12-16T17:30:48.068Z,0.50
2022-12-16T17:33:34.602Z,0.50
2022-12-16T17:36:20.211Z,0.50
2022-12-16T17:39:05.614Z,0.40
2022-12-16T17:41:53.315Z,0.40
2022-12-16T17:44:39.402Z,0.40
2022-12-16T17:47:24.517Z,0.40
2022-12-16T17:50:09.762Z,0.30
2022-12-16T17:52:55.268Z,0.30
2022-12-16T17:55:40.419Z,0.40
2022-12-16T17:58:25.571Z,0.30
2022-12-16T18:01:11.609Z,0.30
2022-12-16T18:03:57.062Z,0.40
2022-12-16T18:06:42.459Z,0.40
2022-12-16T18:09:27.572Z,0.40
2022-12-16T18:12:12.698Z,0.40
2022-12-16T18:14:57.940Z,0.40
2022-12-16T18:17:43.077Z,0.40
2022-12-16T18:20:28.235Z,0.30
2022-12-16T18:23:13.277Z,0.30
2022-12-16T18:25:58.441Z,0.30
2022-12-16T18:28:43.598Z,0.40
2022-12-16T18:31:28.772Z,0.40
2022-12-16T18:34:14.253Z,0.40
2022-12-16T18:36:59.293Z,0.40
2022-12-16T18:39:46.247Z,0.40
2022-12-16T18:42:31.336Z,0.40
2022-12-16T18:45:16.622Z,0.30
2022-12-16T18:48:02.120Z,0.30
2022-12-16T18:51:00.906Z,0.30
2022-12-16T18:53:46.056Z,0.30
2022-12-16T18:56:31.000Z,0.30
2022-12-16T18:59:17.539Z,0.30
2022-12-16T19:02:02.760Z,0.30
2022-12-16T19:04:48.130Z,0.30
2022-12-16T19:07:34.107Z,0.40
2022-12-16T19:10:19.682Z,0.30
2022-12-16T19:13:04.789Z,0.30
2022-12-16T19:15:49.893Z,0.30
2022-12-16T19:18:35.277Z,0.20
2022-12-16T19:21:20.819Z,0.20
2022-12-16T19:24:06.804Z,0.20
2022-12-16T19:26:52.473Z,0.20
2022-12-16T19:29:56.099Z,0.20
2022-12-16T19:32:41.264Z,0.10
2022-12-16T19:35:32.783Z,0.10
2022-12-16T19:38:18.322Z,0.30
2022-12-16T19:41:10.687Z,0.20
2022-12-16T19:44:00.123Z,0.20
2022-12-16T19:46:48.863Z,0.10
2022-12-16T19:49:40.700Z,0.00
2022-12-16T19:55:30.222Z,0.10
2022-12-16T19:58:15.324Z,0.00
2022-12-16T20:01:00.465Z,0.00
2022-12-16T20:03:46.244Z,0.00
2022-12-16T20:06:31.983Z,0.00
2022-12-16T20:09:17.172Z,0.00
2022-12-16T20:12:02.921Z,-0.10
2022-12-16T20:14:56.574Z,-0.10
2022-12-16T20:17:41.900Z,-0.10
2022-12-16T20:20:27.480Z,-0.10
2022-12-16T20:23:13.669Z,-0.20
2022-12-16T20:25:58.985Z,-0.20
2022-12-16T20:28:47.209Z,-0.20
2022-12-16T20:31:32.401Z,-0.30
2022-12-16T20:34:17.815Z,-0.30
2022-12-16T20:37:02.875Z,-0.30
2022-12-16T20:39:56.380Z,-0.30
2022-12-16T20:42:45.672Z,-0.20
2022-12-16T20:45:30.730Z,-0.20
2022-12-16T20:48:15.735Z,-0.20
2022-12-16T20:51:00.875Z,-0.30
2022-12-16T20:53:45.939Z,-0.30
2022-12-16T20:56:31.116Z,-0.30
2022-12-16T20:59:27.347Z,-0.30
2022-12-16T21:02:23.048Z,-0.30
2022-12-16T21:05:10.075Z,-0.30
2022-12-16T21:07:58.310Z,-0.30
2022-12-16T21:10:46.974Z,-0.30
2022-12-16T21:13:33.516Z,-0.30
2022-12-16T21:16:19.572Z,-0.30
2022-12-16T21:19:04.911Z,-0.30
2022-12-16T21:21:50.294Z,-0.30
2022-12-16T21:24:35.420Z,-0.30
2022-12-16T21:27:20.569Z,-0.30
2022-12-16T21:30:05.896Z,-0.30
2022-12-16T21:32:53.480Z,-0.30
2022-12-16T21:35:39.470Z,-0.30
2022-12-16T21:38:28.574Z,-0.30
2022-12-16T21:41:14.174Z,-0.20
2022-12-16T21:43:59.292Z,-0.20
2022-12-16T21:46:44.560Z,-0.10
2022-12-16T21:49:29.679Z,-0.10
2022-12-16T21:52:14.891Z,-0.10
2022-12-16T21:55:00.203Z,-0.20
2022-12-16T21:57:45.522Z,-0.20
2022-12-16T22:00:31.200Z,-0.10
2022-12-16T22:03:16.382Z,-0.10
2022-12-16T22:06:05.804Z,-0.20
2022-12-16T22:08:51.760Z,-0.10
2022-12-16T22:11:37.155Z,-0.10
2022-12-16T22:14:30.139Z,-0.20
2022-12-16T22:17:15.308Z,-0.20
2022-12-16T22:20:00.803Z,-0.20
2022-12-16T22:22:46.162Z,-0.20
2022-12-16T22:25:31.200Z,-0.20
2022-12-16T22:28:16.313Z,-0.20
2022-12-16T22:31:01.510Z,-0.20
2022-12-16T22:33:48.633Z,-0.20
2022-12-16T22:36:34.152Z,-0.20
2022-12-16T22:39:19.378Z,-0.20
2022-12-16T22:42:04.428Z,-0.20
2022-12-16T22:44:49.669Z,-0.10
2022-12-16T22:47:35.009Z,-0.20
2022-12-16T22:50:20.163Z,-0.10
2022-12-16T22:53:05.579Z,-0.10
2022-12-16T22:55:50.902Z,-0.10
2022-12-16T22:58:37.355Z,-0.10
2022-12-16T23:01:26.743Z,0.00
2022-12-16T23:04:13.869Z,0.00
2022-12-16T23:07:03.504Z,0.00
2022-12-16T23:13:02.970Z,0.00
2022-12-16T23:15:52.885Z,0.00
2022-12-16T23:18:42.011Z,0.00
2022-12-16T23:21:37.266Z,-0.10
2022-12-16T23:24:23.083Z,0.00
2022-12-16T23:27:08.204Z,0.00
2022-12-16T23:29:56.816Z,0.10
2022-12-16T23:32:42.568Z,0.00
2022-12-16T23:35:27.955Z,0.10
2022-12-16T23:38:23.285Z,0.00
2022-12-16T23:41:15.083Z,0.00
2022-12-16T23:44:00.217Z,0.00
2022-12-16T23:46:51.684Z,-0.10
2022-12-16T23:49:38.840Z,-0.10
2022-12-16T23:52:30.239Z,0.00
2022-12-16T23:55:15.577Z,-0.10
2022-12-16T23:58:00.888Z,-0.10
